createdAt,value
2022-08-27T00:00:10.263Z,0.00
2022-08-27T00:01:10.241Z,0.00
2022-08-27T00:02:10.348Z,0.00
2022-08-27T00:03:10.218Z,0.00
2022-08-27T00:04:10.309Z,0.00
2022-08-27T00:05:10.189Z,0.00
2022-08-27T00:06:10.197Z,0.00
2022-08-27T00:07:10.184Z,0.00
2022-08-27T00:08:10.323Z,0.00
2022-08-27T00:09:10.151Z,0.00
2022-08-27T00:10:10.149Z,0.00
2022-08-27T00:11:11.052Z,0.00
2022-08-27T00:12:10.114Z,0.00
2022-08-27T00:13:10.103Z,0.00
2022-08-27T00:14:10.113Z,0.00
2022-08-27T00:15:10.273Z,0.00
2022-08-27T00:16:10.120Z,0.00
2022-08-27T00:17:10.082Z,0.00
2022-08-27T00:18:10.249Z,0.00
2022-08-27T00:19:10.050Z,0.00
2022-08-27T00:20:10.021Z,0.00
2022-08-27T00:21:10.036Z,0.00
2022-08-27T00:22:09.999Z,0.00
2022-08-27T00:23:09.986Z,0.00
2022-08-27T00:24:09.990Z,0.00
2022-08-27T00:25:09.981Z,0.00
2022-08-27T00:26:09.950Z,0.00
2022-08-27T00:27:09.962Z,0.00
2022-08-27T00:28:10.175Z,0.00
2022-08-27T00:29:09.921Z,0.00
2022-08-27T00:30:09.929Z,0.00
2022-08-27T00:31:12.189Z,0.00
2022-08-27T00:32:09.976Z,0.00
2022-08-27T00:33:09.890Z,0.00
2022-08-27T00:34:10.367Z,0.00
2022-08-27T00:35:09.858Z,0.00
2022-08-27T00:36:09.854Z,0.00
2022-08-27T00:37:09.863Z,0.00
2022-08-27T00:38:09.999Z,0.00
2022-08-27T00:39:09.827Z,0.00
2022-08-27T00:40:09.867Z,0.00
2022-08-27T00:41:09.794Z,0.00
2022-08-27T00:42:09.786Z,0.00
2022-08-27T00:43:09.775Z,0.00
2022-08-27T00:44:09.766Z,0.00
2022-08-27T00:45:09.761Z,0.00
2022-08-27T00:47:18.694Z,0.00
2022-08-27T00:48:20.376Z,0.00
2022-08-27T00:49:19.664Z,0.00
2022-08-27T00:50:19.674Z,0.00
2022-08-27T00:51:19.641Z,0.00
2022-08-27T00:52:20.169Z,0.00
2022-08-27T00:53:19.628Z,0.00
2022-08-27T00:54:19.608Z,0.00
2022-08-27T00:55:19.617Z,0.00
2022-08-27T00:56:19.587Z,0.00
2022-08-27T00:57:19.582Z,0.00
2022-08-27T00:58:19.577Z,0.00
2022-08-27T00:59:19.558Z,0.00
2022-08-27T01:00:19.562Z,0.00
2022-08-27T01:01:19.596Z,0.00
2022-08-27T01:02:19.635Z,0.00
2022-08-27T01:03:19.519Z,0.00
2022-08-27T01:04:19.503Z,0.00
2022-08-27T01:05:19.503Z,0.00
2022-08-27T01:06:19.486Z,0.00
2022-08-27T01:07:19.483Z,0.00
2022-08-27T01:08:19.472Z,0.00
2022-08-27T01:09:19.444Z,0.00
2022-08-27T01:10:19.441Z,0.00
2022-08-27T01:11:19.440Z,0.00
2022-08-27T01:12:19.423Z,0.00
2022-08-27T01:13:19.404Z,0.00
2022-08-27T01:14:19.421Z,0.00
2022-08-27T01:15:20.223Z,0.00
2022-08-27T01:16:19.443Z,0.00
2022-08-27T01:17:19.378Z,0.00
2022-08-27T01:18:19.370Z,0.00
2022-08-27T01:19:19.359Z,0.00
2022-08-27T01:20:19.330Z,0.00
2022-08-27T01:21:19.321Z,0.00
2022-08-27T01:22:21.824Z,0.00
2022-08-27T01:23:19.298Z,0.00
2022-08-27T01:24:19.318Z,0.00
2022-08-27T01:25:19.277Z,0.00
2022-08-27T01:26:19.267Z,0.00
2022-08-27T01:27:19.246Z,0.00
2022-08-27T01:28:20.237Z,0.00
2022-08-27T01:29:19.260Z,0.00
2022-08-27T01:30:19.223Z,0.00
2022-08-27T01:31:19.239Z,0.00
2022-08-27T01:32:19.203Z,0.00
2022-08-27T01:33:19.183Z,0.00
2022-08-27T01:34:19.172Z,0.00
2022-08-27T01:35:19.177Z,0.00
2022-08-27T01:36:19.149Z,0.00
2022-08-27T01:37:23.881Z,0.00
2022-08-27T01:38:30.714Z,0.00
2022-08-27T01:39:19.125Z,0.00
2022-08-27T01:40:19.173Z,0.00
2022-08-27T01:41:19.101Z,0.00
2022-08-27T01:42:19.103Z,0.00
2022-08-27T01:43:19.073Z,0.00
2022-08-27T01:44:20.941Z,0.00
2022-08-27T01:45:19.058Z,0.00
2022-08-27T01:46:19.098Z,0.00
2022-08-27T01:47:19.048Z,0.00
2022-08-27T01:48:19.032Z,0.00
2022-08-27T01:49:19.008Z,0.00
2022-08-27T01:50:19.016Z,0.00
2022-08-27T01:51:19.043Z,0.00
2022-08-27T01:52:18.981Z,0.00
2022-08-27T01:53:18.984Z,0.00
2022-08-27T01:54:18.965Z,0.00
2022-08-27T01:55:18.969Z,0.00
2022-08-27T01:56:18.935Z,0.00
2022-08-27T01:57:21.958Z,0.00
2022-08-27T01:58:18.913Z,0.00
2022-08-27T01:59:18.901Z,0.00
2022-08-27T02:00:18.911Z,0.00
2022-08-27T02:01:18.924Z,0.00
2022-08-27T02:02:18.991Z,0.00
2022-08-27T02:03:18.853Z,0.00
2022-08-27T02:04:18.849Z,0.00
2022-08-27T02:05:18.835Z,0.00
2022-08-27T02:06:18.834Z,0.00
2022-08-27T02:07:18.811Z,0.00
2022-08-27T02:08:18.878Z,0.00
2022-08-27T02:09:18.785Z,0.00
2022-08-27T02:10:18.793Z,0.00
2022-08-27T02:11:18.794Z,0.00
2022-08-27T02:12:18.757Z,0.00
2022-08-27T02:13:18.746Z,0.00
2022-08-27T02:14:18.738Z,0.00
2022-08-27T02:15:18.755Z,0.00
2022-08-27T02:16:18.787Z,0.00
2022-08-27T02:17:18.700Z,0.00
2022-08-27T02:18:18.697Z,0.00
2022-08-27T02:19:18.676Z,0.00
2022-08-27T02:20:18.686Z,0.00
2022-08-27T02:21:18.705Z,0.00
2022-08-27T02:22:18.648Z,0.00
2022-08-27T02:23:18.654Z,0.00
2022-08-27T02:24:18.632Z,0.00
2022-08-27T02:25:18.614Z,0.00
2022-08-27T02:26:18.603Z,0.00
2022-08-27T02:27:18.589Z,0.00
2022-08-27T02:28:18.601Z,0.00
2022-08-27T02:29:18.571Z,0.00
2022-08-27T02:30:18.562Z,0.00
2022-08-27T02:31:18.648Z,0.00
2022-08-27T02:32:31.739Z,0.00
2022-08-27T02:33:18.530Z,0.00
2022-08-27T02:34:18.512Z,0.00
2022-08-27T02:35:18.520Z,0.00
2022-08-27T02:36:18.510Z,0.00
2022-08-27T02:37:18.488Z,0.00
2022-08-27T02:38:18.474Z,0.00
2022-08-27T02:39:18.457Z,0.00
2022-08-27T02:40:18.505Z,0.00
2022-08-27T02:41:18.465Z,0.00
2022-08-27T02:42:18.433Z,0.00
2022-08-27T02:43:24.929Z,0.00
2022-08-27T02:44:18.408Z,0.00
2022-08-27T02:45:18.409Z,0.00
2022-08-27T02:46:18.472Z,0.00
2022-08-27T02:48:27.329Z,0.00
2022-08-27T02:49:28.313Z,0.00
2022-08-27T02:50:28.302Z,0.00
2022-08-27T02:51:28.311Z,0.00
2022-08-27T02:52:28.284Z,0.00
2022-08-27T02:53:28.284Z,0.00
2022-08-27T02:54:28.263Z,0.00
2022-08-27T02:55:28.247Z,0.00
2022-08-27T02:56:28.252Z,0.00
2022-08-27T02:57:28.223Z,0.00
2022-08-27T02:58:28.220Z,0.00
2022-08-27T02:59:28.202Z,0.00
2022-08-27T03:00:28.194Z,0.00
2022-08-27T03:01:28.223Z,0.00
2022-08-27T03:02:28.390Z,0.00
2022-08-27T03:03:28.160Z,0.00
2022-08-27T03:04:28.151Z,0.00
2022-08-27T03:05:28.136Z,0.00
2022-08-27T03:06:28.142Z,0.00
2022-08-27T03:07:28.121Z,0.00
2022-08-27T03:08:28.457Z,0.00
2022-08-27T03:09:28.090Z,0.00
2022-08-27T03:10:28.087Z,0.00
2022-08-27T03:11:28.081Z,0.00
2022-08-27T03:12:28.080Z,0.00
2022-08-27T03:13:28.052Z,0.00
2022-08-27T03:14:28.037Z,0.00
2022-08-27T03:15:28.051Z,0.00
2022-08-27T03:16:28.080Z,0.00
2022-08-27T03:17:28.017Z,0.00
2022-08-27T03:18:27.991Z,0.00
2022-08-27T03:19:27.979Z,0.00
2022-08-27T03:20:27.969Z,0.00
2022-08-27T03:21:27.995Z,0.00
2022-08-27T03:22:27.959Z,0.00
2022-08-27T03:23:27.960Z,0.00
2022-08-27T03:24:27.966Z,0.00
2022-08-27T03:25:28.019Z,0.00
2022-08-27T03:26:28.001Z,0.00
2022-08-27T03:27:28.819Z,0.00
2022-08-27T03:28:27.899Z,0.00
2022-08-27T03:29:27.873Z,0.00
2022-08-27T03:30:27.872Z,0.00
2022-08-27T03:31:27.933Z,0.00
2022-08-27T03:32:27.857Z,0.00
2022-08-27T03:33:27.825Z,0.00
2022-08-27T03:34:27.832Z,0.00
2022-08-27T03:35:27.826Z,0.00
2022-08-27T03:36:27.794Z,0.00
2022-08-27T03:37:27.779Z,0.00
2022-08-27T03:38:27.802Z,0.00
2022-08-27T03:39:27.757Z,0.00
2022-08-27T03:40:27.846Z,0.00
2022-08-27T03:41:45.441Z,0.00
2022-08-27T03:42:27.730Z,0.00
2022-08-27T03:43:27.735Z,0.00
2022-08-27T03:44:27.720Z,0.00
2022-08-27T03:45:27.688Z,0.00
2022-08-27T03:46:27.739Z,0.00
2022-08-27T03:47:27.670Z,0.00
2022-08-27T03:48:27.672Z,0.00
2022-08-27T03:49:27.648Z,0.00
2022-08-27T03:50:27.641Z,0.00
2022-08-27T03:51:27.626Z,0.00
2022-08-27T03:52:27.638Z,0.00
2022-08-27T03:53:27.606Z,0.00
2022-08-27T03:54:27.612Z,0.00
2022-08-27T03:55:27.605Z,0.00
2022-08-27T03:56:27.569Z,0.00
2022-08-27T03:57:27.569Z,0.00
2022-08-27T03:58:27.550Z,0.00
2022-08-27T03:59:27.550Z,0.00
2022-08-27T04:00:27.525Z,0.00
2022-08-27T04:01:27.532Z,0.00
2022-08-27T04:02:27.543Z,0.00
2022-08-27T04:03:27.495Z,0.00
2022-08-27T04:04:27.501Z,0.00
2022-08-27T04:05:27.474Z,0.00
2022-08-27T04:06:27.455Z,0.00
2022-08-27T04:07:27.465Z,0.00
2022-08-27T04:08:28.324Z,0.00
2022-08-27T04:09:27.448Z,4.00
2022-08-27T04:10:27.415Z,4.00
2022-08-27T04:11:27.407Z,0.00
2022-08-27T04:12:27.392Z,4.00
2022-08-27T04:13:27.387Z,4.00
2022-08-27T04:14:27.770Z,4.00
2022-08-27T04:15:27.374Z,8.00
2022-08-27T04:16:27.430Z,4.00
2022-08-27T04:17:27.335Z,4.00
2022-08-27T04:18:27.328Z,8.00
2022-08-27T04:19:28.384Z,8.00
2022-08-27T04:20:35.774Z,8.00
2022-08-27T04:21:27.307Z,8.00
2022-08-27T04:22:27.278Z,8.00
2022-08-27T04:23:27.264Z,12.00
2022-08-27T04:24:27.278Z,8.00
2022-08-27T04:25:27.255Z,12.00
2022-08-27T04:26:27.255Z,12.00
2022-08-27T04:27:27.228Z,16.00
2022-08-27T04:28:27.213Z,16.00
2022-08-27T04:29:27.225Z,20.00
2022-08-27T04:30:27.198Z,20.00
2022-08-27T04:31:27.236Z,20.00
2022-08-27T04:32:29.117Z,20.00
2022-08-27T04:33:27.174Z,24.00
2022-08-27T04:34:27.163Z,28.00
2022-08-27T04:35:27.134Z,28.00
2022-08-27T04:36:27.129Z,32.00
2022-08-27T04:37:27.130Z,32.00
2022-08-27T04:38:27.101Z,36.00
2022-08-27T04:39:27.093Z,36.00
2022-08-27T04:40:27.095Z,36.00
2022-08-27T04:41:27.063Z,40.00
2022-08-27T04:42:27.084Z,40.00
2022-08-27T04:43:27.045Z,44.00
2022-08-27T04:44:27.030Z,48.00
2022-08-27T04:45:27.024Z,48.00
2022-08-27T04:46:27.105Z,52.00
2022-08-27T04:47:27.009Z,56.00
2022-08-27T04:49:37.428Z,64.00
2022-08-27T04:50:37.976Z,68.00
2022-08-27T04:51:37.952Z,68.00
2022-08-27T04:52:40.908Z,72.00
2022-08-27T04:53:37.933Z,72.00
2022-08-27T04:54:37.930Z,76.00
2022-08-27T04:55:37.910Z,84.00
2022-08-27T04:56:37.909Z,84.00
2022-08-27T04:57:37.883Z,88.00
2022-08-27T04:58:37.875Z,92.00
2022-08-27T04:59:37.865Z,100.00
2022-08-27T05:00:37.854Z,104.00
2022-08-27T05:01:37.950Z,108.00
2022-08-27T05:02:37.835Z,108.00
2022-08-27T05:03:37.822Z,112.00
2022-08-27T05:04:37.805Z,116.00
2022-08-27T05:05:37.873Z,124.00
2022-08-27T05:06:37.906Z,128.00
2022-08-27T05:07:37.802Z,136.00
2022-08-27T05:08:37.780Z,136.00
2022-08-27T05:09:37.770Z,144.00
2022-08-27T05:10:37.748Z,144.00
2022-08-27T05:11:37.734Z,148.00
2022-08-27T05:12:37.724Z,152.00
2022-08-27T05:13:37.711Z,156.00
2022-08-27T05:14:37.715Z,156.00
2022-08-27T05:15:37.730Z,160.00
2022-08-27T05:16:37.673Z,168.00
2022-08-27T05:17:37.685Z,184.00
2022-08-27T05:18:42.177Z,200.00
2022-08-27T05:19:37.668Z,216.00
2022-08-27T05:20:37.658Z,240.00
2022-08-27T05:21:37.638Z,264.00
2022-08-27T05:22:37.609Z,288.00
2022-08-27T05:23:37.596Z,316.00
2022-08-27T05:24:37.589Z,352.00
2022-08-27T05:25:37.575Z,388.00
2022-08-27T05:26:37.589Z,428.00
2022-08-27T05:27:37.560Z,464.00
2022-08-27T05:28:37.544Z,508.00
2022-08-27T05:29:37.962Z,544.00
2022-08-27T05:30:37.546Z,580.00
2022-08-27T05:31:37.567Z,608.00
2022-08-27T05:32:37.508Z,628.00
2022-08-27T05:33:37.488Z,636.00
2022-08-27T05:34:37.507Z,648.00
2022-08-27T05:35:37.466Z,648.00
2022-08-27T05:36:37.465Z,656.00
2022-08-27T05:37:37.456Z,672.00
2022-08-27T05:38:37.455Z,696.00
2022-08-27T05:39:37.427Z,720.00
2022-08-27T05:40:37.527Z,736.00
2022-08-27T05:41:37.401Z,752.00
2022-08-27T05:42:37.402Z,768.00
2022-08-27T05:43:37.388Z,792.00
2022-08-27T05:44:41.034Z,828.00
2022-08-27T05:45:37.371Z,872.00
2022-08-27T05:46:37.418Z,908.00
2022-08-27T05:47:37.459Z,936.00
2022-08-27T05:48:37.329Z,960.00
2022-08-27T05:49:37.335Z,992.00
2022-08-27T05:50:37.302Z,1040.00
2022-08-27T05:51:37.308Z,1100.00
2022-08-27T05:52:37.277Z,1164.00
2022-08-27T05:53:37.273Z,1240.00
2022-08-27T05:54:37.281Z,1332.00
2022-08-27T05:55:37.250Z,1436.00
2022-08-27T05:56:37.258Z,1560.00
2022-08-27T05:57:37.228Z,1700.00
2022-08-27T05:58:37.221Z,1852.00
2022-08-27T05:59:37.219Z,2016.00
2022-08-27T06:00:37.197Z,2168.00
2022-08-27T06:01:37.201Z,2312.00
2022-08-27T06:02:37.245Z,2464.00
2022-08-27T06:03:37.162Z,2600.00
2022-08-27T06:04:37.168Z,2696.00
2022-08-27T06:05:37.272Z,2780.00
2022-08-27T06:06:37.125Z,2876.00
2022-08-27T06:07:37.162Z,2964.00
2022-08-27T06:08:37.109Z,3020.00
2022-08-27T06:09:37.118Z,3040.00
2022-08-27T06:10:37.098Z,3020.00
2022-08-27T06:11:37.070Z,2996.00
2022-08-27T06:12:37.081Z,2964.00
2022-08-27T06:13:37.063Z,2908.00
2022-08-27T06:14:37.043Z,2828.00
2022-08-27T06:15:37.049Z,2748.00
2022-08-27T06:16:37.014Z,2676.00
2022-08-27T06:17:37.012Z,2668.00
2022-08-27T06:18:37.021Z,2704.00
2022-08-27T06:19:36.984Z,2760.00
2022-08-27T06:20:36.986Z,2832.00
2022-08-27T06:21:36.966Z,2932.00
2022-08-27T06:22:36.972Z,3032.00
2022-08-27T06:23:36.969Z,3104.00
2022-08-27T06:24:36.932Z,3136.00
2022-08-27T06:25:36.932Z,3192.00
2022-08-27T06:26:36.911Z,3296.00
2022-08-27T06:27:36.913Z,3476.00
2022-08-27T06:28:36.887Z,3712.00
2022-08-27T06:29:36.874Z,3972.00
2022-08-27T06:30:36.882Z,4264.00
2022-08-27T06:31:36.853Z,4548.00
2022-08-27T06:32:36.847Z,4800.00
2022-08-27T06:33:36.850Z,4984.00
2022-08-27T06:34:36.816Z,5100.00
2022-08-27T06:35:37.450Z,5096.00
2022-08-27T06:36:36.794Z,4916.00
2022-08-27T06:37:36.812Z,4744.00
2022-08-27T06:38:36.772Z,4692.00
2022-08-27T06:39:37.417Z,4764.00
2022-08-27T06:40:36.813Z,4884.00
2022-08-27T06:41:36.740Z,5032.00
2022-08-27T06:42:36.736Z,5204.00
2022-08-27T06:43:36.732Z,5424.00
2022-08-27T06:44:36.722Z,5596.00
2022-08-27T06:45:36.727Z,5708.00
2022-08-27T06:46:36.743Z,5820.00
2022-08-27T06:47:36.697Z,5804.00
2022-08-27T06:48:36.669Z,5732.00
2022-08-27T06:50:45.627Z,5736.00
2022-08-27T06:51:46.614Z,5820.00
2022-08-27T06:52:46.592Z,5892.00
2022-08-27T06:53:46.581Z,6012.00
2022-08-27T06:54:46.570Z,6180.00
2022-08-27T06:55:46.563Z,6356.00
2022-08-27T06:56:46.612Z,6612.00
2022-08-27T06:57:46.543Z,7004.00
2022-08-27T06:58:46.537Z,7496.00
2022-08-27T06:59:46.535Z,7984.00
2022-08-27T07:00:48.986Z,8460.00
2022-08-27T07:01:46.609Z,8780.00
2022-08-27T07:02:46.544Z,8892.00
2022-08-27T07:03:46.489Z,8812.00
2022-08-27T07:04:46.458Z,8772.00
2022-08-27T07:05:46.463Z,8832.00
2022-08-27T07:06:46.439Z,8856.00
2022-08-27T07:07:48.836Z,8928.00
2022-08-27T07:08:53.081Z,9028.00
2022-08-27T07:09:46.409Z,9112.00
2022-08-27T07:10:46.413Z,9216.00
2022-08-27T07:11:46.386Z,9420.00
2022-08-27T07:12:46.379Z,9632.00
2022-08-27T07:13:46.383Z,9856.00
2022-08-27T07:14:46.350Z,10052.00
2022-08-27T07:15:46.412Z,10256.00
2022-08-27T07:16:48.170Z,10520.00
2022-08-27T07:17:46.314Z,10772.00
2022-08-27T07:18:46.308Z,10964.00
2022-08-27T07:19:46.314Z,11204.00
2022-08-27T07:20:46.286Z,11392.00
2022-08-27T07:21:46.278Z,11504.00
2022-08-27T07:22:46.268Z,11560.00
2022-08-27T07:23:46.271Z,11536.00
2022-08-27T07:24:46.241Z,11616.00
2022-08-27T07:25:46.253Z,11896.00
2022-08-27T07:26:46.226Z,12280.00
2022-08-27T07:27:46.209Z,12588.00
2022-08-27T07:28:46.208Z,12748.00
2022-08-27T07:29:46.181Z,12844.00
2022-08-27T07:30:46.252Z,12456.00
2022-08-27T07:31:46.164Z,12288.00
2022-08-27T07:32:46.157Z,12500.00
2022-08-27T07:33:52.594Z,12844.00
2022-08-27T07:34:46.137Z,13380.00
2022-08-27T07:35:46.139Z,13668.00
2022-08-27T07:36:46.113Z,13368.00
2022-08-27T07:37:46.104Z,13188.00
2022-08-27T07:38:48.459Z,13056.00
2022-08-27T07:39:46.077Z,12912.00
2022-08-27T07:40:46.062Z,12804.00
2022-08-27T07:41:46.066Z,12588.00
2022-08-27T07:42:46.046Z,12228.00
2022-08-27T07:43:46.034Z,11808.00
2022-08-27T07:44:46.024Z,11396.00
2022-08-27T07:45:46.051Z,11196.00
2022-08-27T07:46:48.197Z,11116.00
2022-08-27T07:47:45.985Z,11068.00
2022-08-27T07:48:45.984Z,11180.00
2022-08-27T07:49:45.972Z,11604.00
2022-08-27T07:50:45.951Z,12748.00
2022-08-27T07:51:45.976Z,14160.00
2022-08-27T07:52:45.933Z,15392.00
2022-08-27T07:53:45.954Z,14668.00
2022-08-27T07:54:45.912Z,13224.00
2022-08-27T07:55:45.899Z,11504.00
2022-08-27T07:56:55.664Z,9984.00
2022-08-27T07:57:45.896Z,8704.00
2022-08-27T07:58:45.863Z,7808.00
2022-08-27T07:59:45.855Z,7280.00
2022-08-27T08:00:45.844Z,7024.00
2022-08-27T08:01:45.893Z,6992.00
2022-08-27T08:02:45.917Z,6984.00
2022-08-27T08:03:45.811Z,6992.00
2022-08-27T08:04:45.797Z,7028.00
2022-08-27T08:05:45.792Z,7116.00
2022-08-27T08:06:45.774Z,7256.00
2022-08-27T08:07:45.778Z,7540.00
2022-08-27T08:08:45.757Z,7940.00
2022-08-27T08:09:45.745Z,8384.00
2022-08-27T08:10:45.744Z,8712.00
2022-08-27T08:11:45.721Z,8904.00
2022-08-27T08:12:45.728Z,8808.00
2022-08-27T08:13:45.705Z,8576.00
2022-08-27T08:14:45.702Z,8108.00
2022-08-27T08:15:45.676Z,7556.00
2022-08-27T08:16:45.717Z,7128.00
2022-08-27T08:17:45.654Z,6840.00
2022-08-27T08:18:45.641Z,6588.00
2022-08-27T08:20:02.492Z,6276.00
2022-08-27T08:20:58.126Z,5900.00
2022-08-27T08:21:45.613Z,5564.00
2022-08-27T08:22:45.600Z,5384.00
2022-08-27T08:23:45.609Z,5280.00
2022-08-27T08:24:45.573Z,5200.00
2022-08-27T08:25:45.562Z,5132.00
2022-08-27T08:26:45.562Z,5016.00
2022-08-27T08:27:45.539Z,4908.00
2022-08-27T08:28:45.536Z,4792.00
2022-08-27T08:29:45.541Z,4760.00
2022-08-27T08:30:45.528Z,4792.00
2022-08-27T08:31:45.505Z,4872.00
2022-08-27T08:32:45.491Z,5020.00
2022-08-27T08:33:45.494Z,5244.00
2022-08-27T08:34:45.482Z,5444.00
2022-08-27T08:35:45.468Z,5552.00
2022-08-27T08:36:46.276Z,5700.00
2022-08-27T08:37:45.446Z,5848.00
2022-08-27T08:38:45.420Z,5960.00
2022-08-27T08:39:45.413Z,6120.00
2022-08-27T08:40:45.395Z,6240.00
2022-08-27T08:41:45.385Z,6384.00
2022-08-27T08:42:50.574Z,6492.00
2022-08-27T08:43:45.365Z,6424.00
2022-08-27T08:44:45.352Z,6288.00
2022-08-27T08:45:45.427Z,6080.00
2022-08-27T08:46:45.336Z,5840.00
2022-08-27T08:47:45.339Z,5656.00
2022-08-27T08:48:45.318Z,5612.00
2022-08-27T08:49:45.297Z,5684.00
2022-08-27T08:51:54.265Z,6128.00
2022-08-27T08:52:55.245Z,6300.00
2022-08-27T08:53:55.218Z,6528.00
2022-08-27T08:54:55.221Z,6696.00
2022-08-27T08:55:55.197Z,6840.00
2022-08-27T08:56:55.418Z,6872.00
2022-08-27T08:57:55.184Z,6860.00
2022-08-27T08:58:55.172Z,6964.00
2022-08-27T08:59:55.174Z,6964.00
2022-08-27T09:00:55.232Z,7204.00
2022-08-27T09:01:55.153Z,7628.00
2022-08-27T09:02:55.138Z,8040.00
2022-08-27T09:03:55.188Z,8368.00
2022-08-27T09:04:55.120Z,8448.00
2022-08-27T09:05:55.097Z,8620.00
2022-08-27T09:06:55.085Z,8900.00
2022-08-27T09:08:05.179Z,8888.00
2022-08-27T09:08:55.087Z,8568.00
2022-08-27T09:09:55.064Z,7768.00
2022-08-27T09:10:55.035Z,7372.00
2022-08-27T09:11:55.027Z,7148.00
2022-08-27T09:12:55.016Z,7036.00
2022-08-27T09:13:55.009Z,7252.00
2022-08-27T09:14:55.006Z,7912.00
2022-08-27T09:15:54.989Z,8756.00
2022-08-27T09:16:56.654Z,9452.00
2022-08-27T09:17:54.962Z,9480.00
2022-08-27T09:18:54.954Z,9196.00
2022-08-27T09:19:54.951Z,8812.00
2022-08-27T09:20:54.930Z,8544.00
2022-08-27T09:21:54.935Z,8480.00
2022-08-27T09:22:54.913Z,9064.00
2022-08-27T09:23:54.903Z,9752.00
2022-08-27T09:24:54.890Z,10460.00
2022-08-27T09:25:54.893Z,10952.00
2022-08-27T09:26:54.881Z,11196.00
2022-08-27T09:27:54.853Z,11324.00
2022-08-27T09:28:54.841Z,10892.00
2022-08-27T09:29:54.830Z,10468.00
2022-08-27T09:30:54.893Z,9872.00
2022-08-27T09:31:54.845Z,9316.00
2022-08-27T09:32:54.799Z,8940.00
2022-08-27T09:33:56.608Z,8316.00
2022-08-27T09:34:54.781Z,8124.00
2022-08-27T09:35:54.785Z,7524.00
2022-08-27T09:36:54.765Z,6984.00
2022-08-27T09:37:54.765Z,6400.00
2022-08-27T09:38:58.282Z,6348.00
2022-08-27T09:39:54.764Z,6172.00
2022-08-27T09:40:54.712Z,6520.00
2022-08-27T09:41:54.720Z,6712.00
2022-08-27T09:42:54.687Z,6648.00
2022-08-27T09:43:54.681Z,6460.00
2022-08-27T09:44:54.688Z,6052.00
2022-08-27T09:45:54.749Z,5696.00
2022-08-27T09:46:54.666Z,5416.00
2022-08-27T09:47:54.654Z,5188.00
2022-08-27T09:48:54.626Z,4820.00
2022-08-27T09:49:54.626Z,4868.00
2022-08-27T09:50:54.605Z,4828.00
2022-08-27T09:51:54.607Z,4708.00
2022-08-27T09:52:54.583Z,4568.00
2022-08-27T09:53:54.570Z,4416.00
2022-08-27T09:54:54.567Z,4352.00
2022-08-27T09:55:54.545Z,4352.00
2022-08-27T09:56:54.534Z,4376.00
2022-08-27T09:57:54.565Z,4348.00
2022-08-27T09:58:54.542Z,4384.00
2022-08-27T09:59:54.512Z,4336.00
2022-08-27T10:00:54.525Z,4288.00
2022-08-27T10:01:54.484Z,4296.00
2022-08-27T10:02:54.477Z,4364.00
2022-08-27T10:03:54.533Z,4376.00
2022-08-27T10:04:54.451Z,4476.00
2022-08-27T10:05:54.439Z,4624.00
2022-08-27T10:06:54.445Z,4876.00
2022-08-27T10:07:54.415Z,5024.00
2022-08-27T10:08:54.408Z,5224.00
2022-08-27T10:09:54.393Z,5312.00
2022-08-27T10:10:54.398Z,5376.00
2022-08-27T10:11:54.389Z,5532.00
2022-08-27T10:12:54.374Z,5816.00
2022-08-27T10:13:54.355Z,5860.00
2022-08-27T10:14:54.348Z,6004.00
2022-08-27T10:15:54.339Z,6056.00
2022-08-27T10:16:54.394Z,6072.00
2022-08-27T10:17:54.328Z,6116.00
2022-08-27T10:18:54.333Z,5928.00
2022-08-27T10:19:54.340Z,5896.00
2022-08-27T10:20:54.342Z,6128.00
2022-08-27T10:21:54.279Z,6172.00
2022-08-27T10:22:54.252Z,6280.00
2022-08-27T10:23:54.262Z,6232.00
2022-08-27T10:24:54.249Z,6496.00
2022-08-27T10:25:54.242Z,6596.00
2022-08-27T10:26:54.219Z,6600.00
2022-08-27T10:27:54.241Z,6300.00
2022-08-27T10:28:54.215Z,5976.00
2022-08-27T10:29:55.118Z,5860.00
2022-08-27T10:30:54.164Z,6080.00
2022-08-27T10:31:54.224Z,6300.00
2022-08-27T10:32:55.030Z,6400.00
2022-08-27T10:33:54.154Z,6212.00
2022-08-27T10:34:54.133Z,6024.00
2022-08-27T10:35:54.592Z,5808.00
2022-08-27T10:36:54.105Z,5752.00
2022-08-27T10:37:54.093Z,5660.00
2022-08-27T10:38:54.097Z,5732.00
2022-08-27T10:39:54.128Z,5744.00
2022-08-27T10:40:54.085Z,5700.00
2022-08-27T10:41:54.043Z,5828.00
2022-08-27T10:42:57.819Z,5864.00
2022-08-27T10:43:54.031Z,5728.00
2022-08-27T10:44:54.016Z,5820.00
2022-08-27T10:45:54.058Z,5920.00
2022-08-27T10:46:54.001Z,5912.00
2022-08-27T10:47:53.987Z,5852.00
2022-08-27T10:48:53.976Z,5760.00
2022-08-27T10:49:53.957Z,5648.00
2022-08-27T10:50:53.961Z,5792.00
2022-08-27T10:53:02.897Z,5992.00
2022-08-27T10:54:03.883Z,6148.00
2022-08-27T10:55:07.049Z,6260.00
2022-08-27T10:56:03.884Z,6396.00
2022-08-27T10:57:26.157Z,6556.00
2022-08-27T10:58:03.849Z,6732.00
2022-08-27T10:59:03.829Z,6880.00
2022-08-27T11:00:03.818Z,6908.00
2022-08-27T11:01:03.916Z,6864.00
2022-08-27T11:02:03.870Z,6852.00
2022-08-27T11:03:03.783Z,6788.00
2022-08-27T11:04:03.778Z,6736.00
2022-08-27T11:05:03.759Z,6724.00
2022-08-27T11:06:03.751Z,6708.00
2022-08-27T11:07:03.755Z,6684.00
2022-08-27T11:08:03.839Z,6548.00
2022-08-27T11:09:07.553Z,6468.00
2022-08-27T11:10:03.705Z,6448.00
2022-08-27T11:11:31.719Z,6444.00
2022-08-27T11:12:19.163Z,6392.00
2022-08-27T11:13:03.688Z,6344.00
2022-08-27T11:14:04.377Z,6304.00
2022-08-27T11:15:03.651Z,6344.00
2022-08-27T11:16:03.672Z,6452.00
2022-08-27T11:17:03.649Z,6584.00
2022-08-27T11:18:03.655Z,6736.00
2022-08-27T11:19:03.614Z,6816.00
2022-08-27T11:20:03.608Z,6916.00
2022-08-27T11:21:03.633Z,7008.00
2022-08-27T11:22:03.603Z,7064.00
2022-08-27T11:23:03.564Z,7056.00
2022-08-27T11:24:03.566Z,7108.00
2022-08-27T11:25:03.559Z,7152.00
2022-08-27T11:26:03.543Z,7196.00
2022-08-27T11:27:03.520Z,7236.00
2022-08-27T11:28:03.514Z,7244.00
2022-08-27T11:29:03.504Z,7292.00
2022-08-27T11:30:03.510Z,7368.00
2022-08-27T11:31:03.508Z,7464.00
2022-08-27T11:32:03.519Z,7580.00
2022-08-27T11:33:03.461Z,7732.00
2022-08-27T11:34:03.478Z,7908.00
2022-08-27T11:35:03.443Z,8096.00
2022-08-27T11:36:03.428Z,8248.00
2022-08-27T11:37:03.428Z,8352.00
2022-08-27T11:38:03.411Z,8428.00
2022-08-27T11:39:03.404Z,8480.00
2022-08-27T11:40:03.426Z,8528.00
2022-08-27T11:41:03.386Z,8544.00
2022-08-27T11:42:03.426Z,8628.00
2022-08-27T11:43:03.352Z,8792.00
2022-08-27T11:44:03.343Z,8884.00
2022-08-27T11:45:03.327Z,8868.00
2022-08-27T11:46:03.343Z,8720.00
2022-08-27T11:47:03.410Z,8424.00
2022-08-27T11:48:03.298Z,8000.00
2022-08-27T11:49:03.291Z,7612.00
2022-08-27T11:50:03.290Z,7348.00
2022-08-27T11:51:03.265Z,7100.00
2022-08-27T11:52:03.250Z,6780.00
2022-08-27T11:53:03.262Z,6676.00
2022-08-27T11:54:03.231Z,6552.00
2022-08-27T11:55:03.225Z,6476.00
2022-08-27T11:56:03.225Z,6612.00
2022-08-27T11:57:03.200Z,6860.00
2022-08-27T11:58:03.212Z,7104.00
2022-08-27T11:59:03.195Z,7528.00
2022-08-27T12:00:03.173Z,7744.00
2022-08-27T12:01:04.949Z,7568.00
2022-08-27T12:02:03.148Z,7236.00
2022-08-27T12:03:03.191Z,6992.00
2022-08-27T12:04:03.219Z,6800.00
2022-08-27T12:05:03.128Z,6872.00
2022-08-27T12:06:03.107Z,6944.00
2022-08-27T12:07:03.094Z,6996.00
2022-08-27T12:08:03.084Z,7076.00
2022-08-27T12:09:03.073Z,7032.00
2022-08-27T12:10:03.071Z,6908.00
2022-08-27T12:11:03.067Z,6936.00
2022-08-27T12:12:03.037Z,7028.00
2022-08-27T12:13:03.038Z,7128.00
2022-08-27T12:14:03.015Z,6968.00
2022-08-27T12:15:03.021Z,6680.00
2022-08-27T12:16:03.070Z,6352.00
2022-08-27T12:17:02.991Z,6304.00
2022-08-27T12:18:02.975Z,6296.00
2022-08-27T12:19:02.987Z,6060.00
2022-08-27T12:20:02.951Z,5868.00
2022-08-27T12:21:02.936Z,5376.00
2022-08-27T12:22:02.929Z,5036.00
2022-08-27T12:23:02.987Z,4740.00
2022-08-27T12:24:02.910Z,4540.00
2022-08-27T12:25:02.917Z,4500.00
2022-08-27T12:26:02.913Z,4492.00
2022-08-27T12:27:02.879Z,4556.00
2022-08-27T12:28:02.897Z,4640.00
2022-08-27T12:29:02.850Z,4776.00
2022-08-27T12:30:02.845Z,4800.00
2022-08-27T12:31:02.834Z,4764.00
2022-08-27T12:32:02.937Z,4860.00
2022-08-27T12:33:02.827Z,4944.00
2022-08-27T12:34:02.801Z,5124.00
2022-08-27T12:35:02.799Z,5360.00
2022-08-27T12:36:02.785Z,5644.00
2022-08-27T12:37:02.771Z,6048.00
2022-08-27T12:38:02.788Z,6316.00